Time;durP1;ratioP1;P1;durP2;ratioP2;P2;SDS_P1;SDS_P2;PMS_P1;PMS_P2;Temp;Humidity;BMP_temperature;BMP_pressure;BME280_temperature;BME280_humidity;BME280_pressure;Samples;Min_cycle;Max_cycle;Signal;HPM_P1;HPM_P2
2023/01/03 00:00:18;;;;;;;15.02;13.20;;;;;;;;;;5030524;28;20053;-57
2023/01/03 00:02:44;;;;;;;15.00;12.90;;;;;;;;;;5031618;28;20600;-59
2023/01/03 00:05:10;;;;;;;14.90;12.60;;;;;;;;;;5029959;28;20033;-60
2023/01/03 00:07:36;;;;;;;16.67;14.02;;;;;;;;;;5032329;28;20033;-62
2023/01/03 00:10:07;;;;;;;15.20;13.32;;;;;;;;;;5032456;28;20494;-59
2023/01/03 00:12:33;;;;;;;20.00;13.85;;;;;;;;;;5031693;28;20022;-59
2023/01/03 00:15:00;;;;;;;17.13;14.20;;;;;;;;;;5031575;28;20026;-58
2023/01/03 00:17:26;;;;;;;18.50;14.38;;;;;;;;;;5032159;28;20025;-62
2023/01/03 00:19:52;;;;;;;15.43;13.82;;;;;;;;;;5032324;28;20017;-61
2023/01/03 00:22:18;;;;;;;17.38;14.00;;;;;;;;;;5031069;28;20036;-62
2023/01/03 00:24:44;;;;;;;14.60;11.65;;;;;;;;;;5031560;28;20079;-62
2023/01/03 00:27:11;;;;;;;14.70;12.00;;;;;;;;;;5030939;28;20029;-62
2023/01/03 00:29:37;;;;;;;14.65;11.80;;;;;;;;;;5030935;28;20025;-61
2023/01/03 00:32:03;;;;;;;14.60;11.60;;;;;;;;;;5030865;28;20501;-60
2023/01/03 00:34:29;;;;;;;14.30;11.10;;;;;;;;;;5030283;28;20021;-61
2023/01/03 00:36:55;;;;;;;14.65;11.68;;;;;;;;;;5030931;28;20045;-61
2023/01/03 00:39:22;;;;;;;14.55;11.63;;;;;;;;;;5033123;28;20032;-61
2023/01/03 00:41:48;;;;;;;14.52;11.60;;;;;;;;;;5030843;28;20060;-60
2023/01/03 00:44:14;;;;;;;14.88;12.38;;;;;;;;;;5031136;28;20105;-61
2023/01/03 00:46:40;;;;;;;14.40;11.05;;;;;;;;;;5030491;28;20029;-62
2023/01/03 00:49:06;;;;;;;14.50;11.63;;;;;;;;;;5031842;28;20025;-60
2023/01/03 00:51:33;;;;;;;14.52;11.52;;;;;;;;;;5031705;28;20160;-60
2023/01/03 00:54:00;;;;;;;14.70;11.93;;;;;;;;;;5029640;28;20026;-62
2023/01/03 00:56:27;;;;;;;14.75;12.05;;;;;;;;;;5031615;28;20032;-54
2023/01/03 00:58:54;;;;;;;14.60;11.57;;;;;;;;;;5031720;28;20095;-60
2023/01/03 01:01:24;;;;;;;14.85;12.35;;;;;;;;;;5031451;28;20059;-62
2023/01/03 01:03:51;;;;;;;14.45;11.45;;;;;;;;;;5029764;28;20031;-61
2023/01/03 01:06:19;;;;;;;14.77;12.10;;;;;;;;;;5030505;28;20030;-60
2023/01/03 01:08:46;;;;;;;14.70;12.03;;;;;;;;;;5031578;28;20030;-61
2023/01/03 01:11:13;;;;;;;14.90;12.60;;;;;;;;;;5030364;28;20680;-62
2023/01/03 01:13:39;;;;;;;15.10;12.85;;;;;;;;;;5030760;28;20100;-59
2023/01/03 01:16:06;;;;;;;14.80;12.13;;;;;;;;;;5031534;28;20025;-61
2023/01/03 01:18:33;;;;;;;18.63;12.97;;;;;;;;;;5031398;28;20029;-62
2023/01/03 01:20:59;;;;;;;15.43;13.05;;;;;;;;;;5031544;28;20033;-62
2023/01/03 01:23:25;;;;;;;16.38;13.88;;;;;;;;;;5032398;28;20030;-60
2023/01/03 01:25:51;;;;;;;15.20;12.80;;;;;;;;;;5035441;28;20164;-61
2023/01/03 01:28:17;;;;;;;14.70;12.13;;;;;;;;;;5034042;28;20025;-61
2023/01/03 01:30:43;;;;;;;14.68;11.90;;;;;;;;;;5035404;28;20029;-60
2023/01/03 01:33:09;;;;;;;14.32;10.98;;;;;;;;;;5034655;28;20025;-62
2023/01/03 01:35:35;;;;;;;14.18;10.82;;;;;;;;;;5034191;28;20021;-61
2023/01/03 01:38:01;;;;;;;14.65;11.80;;;;;;;;;;5033952;28;20458;-59
2023/01/03 01:40:27;;;;;;;14.68;11.80;;;;;;;;;;5035203;28;20026;-61
2023/01/03 01:45:38;;;;;;;17.00;15.30;;;;;;;;;;5035192;28;20041;-60
2023/01/03 01:48:11;;;;;;;17.75;16.05;;;;;;;;;;5034731;28;20405;-61
2023/01/03 01:50:39;;;;;;;18.15;16.45;;;;;;;;;;5033829;28;20112;-60
2023/01/03 01:53:11;;;;;;;19.00;17.20;;;;;;;;;;5034389;28;20083;-61
2023/01/03 01:55:40;;;;;;;19.38;17.58;;;;;;;;;;5034950;28;20310;-61
2023/01/03 01:58:07;;;;;;;19.98;18.17;;;;;;;;;;5034818;28;20025;-62
2023/01/03 02:00:33;;;;;;;21.00;19.20;;;;;;;;;;5034805;28;20120;-61
2023/01/03 02:02:59;;;;;;;23.15;20.80;;;;;;;;;;5034629;28;20026;-60
2023/01/03 02:05:26;;;;;;;21.95;20.05;;;;;;;;;;5032944;28;20505;-62
2023/01/03 02:07:53;;;;;;;19.38;17.58;;;;;;;;;;5034491;28;20029;-61
2023/01/03 02:10:24;;;;;;;19.80;18.00;;;;;;;;;;5034697;28;20112;-61
2023/01/03 02:13:05;;;;;;;20.77;18.88;;;;;;;;;;5033426;28;20059;-57
2023/01/03 02:15:31;;;;;;;19.95;18.15;;;;;;;;;;5033175;28;20025;-57
2023/01/03 02:17:57;;;;;;;19.77;17.98;;;;;;;;;;5034466;28;20034;-59
2023/01/03 02:20:23;;;;;;;20.50;18.70;;;;;;;;;;5034488;28;20036;-61
2023/01/03 02:23:08;;;;;;;21.00;19.20;;;;;;;;;;5034403;28;20098;-59
2023/01/03 02:25:40;;;;;;;20.70;18.90;;;;;;;;;;5033064;28;20025;-58
2023/01/03 02:28:18;;;;;;;21.40;19.50;;;;;;;;;;5032794;28;20026;-62
2023/01/03 02:30:49;;;;;;;20.95;19.05;;;;;;;;;;5034353;28;20021;-59
2023/01/03 02:33:33;;;;;;;21.42;19.42;;;;;;;;;;5033099;28;20018;-62
2023/01/03 02:36:11;;;;;;;18.98;17.17;;;;;;;;;;5034388;28;20029;-59
2023/01/03 02:38:37;;;;;;;20.10;18.30;;;;;;;;;;5034160;28;20116;-60
2023/01/03 02:41:12;;;;;;;19.55;17.75;;;;;;;;;;5032945;28;20116;-59
2023/01/03 02:43:41;;;;;;;19.20;17.40;;;;;;;;;;5032013;28;20029;-59
2023/01/03 02:46:17;;;;;;;19.10;17.30;;;;;;;;;;5033880;28;20115;-59
2023/01/03 02:48:55;;;;;;;18.33;16.52;;;;;;;;;;5033588;28;20069;-63
2023/01/03 02:51:23;;;;;;;18.95;17.15;;;;;;;;;;5033951;28;20440;-61
2023/01/03 02:53:50;;;;;;;19.77;17.90;;;;;;;;;;5033052;28;20030;-61
2023/01/03 02:56:22;;;;;;;19.95;16.55;;;;;;;;;;5032508;28;20493;-60
2023/01/03 02:58:52;;;;;;;18.92;17.02;;;;;;;;;;5033777;28;20116;-61
2023/01/03 03:01:19;;;;;;;17.90;16.20;;;;;;;;;;5033824;28;20091;-62
2023/01/03 03:03:46;;;;;;;18.15;16.35;;;;;;;;;;5032789;28;20033;-60
2023/01/03 03:06:15;;;;;;;17.17;15.48;;;;;;;;;;5033507;28;20030;-59
2023/01/03 03:08:43;;;;;;;17.02;15.32;;;;;;;;;;5033327;28;20029;-60
2023/01/03 03:14:14;;;;;;;18.63;16.83;;;;;;;;;;5032661;28;20604;-62
2023/01/03 03:16:48;;;;;;;18.23;16.45;;;;;;;;;;5026188;28;20041;-59
2023/01/03 03:24:58;;;;;;;19.13;17.33;;;;;;;;;;5032626;28;20060;-61
2023/01/03 03:30:11;;;;;;;17.60;15.90;;;;;;;;;;5033417;28;20408;-61
2023/01/03 03:32:39;;;;;;;17.70;16.00;;;;;;;;;;5033084;28;20049;-62
2023/01/03 03:35:08;;;;;;;18.98;17.13;;;;;;;;;;5032340;28;20021;-60
2023/01/03 03:37:33;;;;;;;;;;;;;;;;;;5033357;28;20064;-59
2023/01/03 03:45:50;;;;;;;20.13;18.25;;;;;;;;;;5032956;28;20406;-60
2023/01/03 03:48:16;;;;;;;19.33;17.52;;;;;;;;;;5032531;28;20033;-62
2023/01/03 03:50:45;;;;;;;18.92;17.13;;;;;;;;;;5032704;28;20026;-62
2023/01/03 03:53:13;;;;;;;19.65;17.77;;;;;;;;;;5030759;28;20156;-61
2023/01/03 03:55:43;;;;;;;19.48;17.63;;;;;;;;;;5032567;28;20021;-62
2023/01/03 03:58:12;;;;;;;19.23;17.42;;;;;;;;;;5032382;28;20021;-61
2023/01/03 04:00:40;;;;;;;17.85;16.15;;;;;;;;;;5032406;28;20764;-60
2023/01/03 04:03:06;;;;;;;19.85;18.05;;;;;;;;;;5030450;28;20083;-61
2023/01/03 04:05:35;;;;;;;19.00;17.20;;;;;;;;;;5032532;28;20029;-61
2023/01/03 04:08:01;;;;;;;19.30;17.50;;;;;;;;;;5032173;28;20035;-62
2023/01/03 04:10:28;;;;;;;18.63;16.83;;;;;;;;;;5032394;28;20052;-62
2023/01/03 04:12:54;;;;;;;18.42;16.63;;;;;;;;;;5032148;28;20026;-60
2023/01/03 04:15:20;;;;;;;19.52;17.70;;;;;;;;;;5031608;28;20092;-62
2023/01/03 04:17:46;;;;;;;18.73;16.92;;;;;;;;;;5030905;28;20461;-61
2023/01/03 04:20:12;;;;;;;23.33;19.10;;;;;;;;;;5030973;28;20219;-55
2023/01/03 04:22:38;;;;;;;20.38;18.48;;;;;;;;;;5032131;28;20049;-62
2023/01/03 04:25:05;;;;;;;18.90;17.10;;;;;;;;;;5031487;28;20148;-61
2023/01/03 04:27:31;;;;;;;19.90;18.10;;;;;;;;;;5031964;28;20033;-58
2023/01/03 04:29:57;;;;;;;23.23;21.05;;;;;;;;;;5032148;28;20108;-62
2023/01/03 04:32:23;;;;;;;19.88;18.08;;;;;;;;;;5032180;28;20025;-60
2023/01/03 04:34:49;;;;;;;21.08;19.02;;;;;;;;;;5031385;28;20026;-58
2023/01/03 04:37:15;;;;;;;18.95;17.15;;;;;;;;;;5031088;28;20113;-57
2023/01/03 04:39:41;;;;;;;20.15;18.25;;;;;;;;;;5032131;28;20029;-59
2023/01/03 04:44:51;;;;;;;19.48;17.67;;;;;;;;;;5031298;28;20504;-60
2023/01/03 04:47:17;;;;;;;19.50;17.70;;;;;;;;;;5030280;28;20041;-60
2023/01/03 04:49:45;;;;;;;19.50;17.70;;;;;;;;;;5031850;28;20033;-60
2023/01/03 04:52:11;;;;;;;18.80;17.00;;;;;;;;;;5030616;28;20401;-62
2023/01/03 04:54:37;;;;;;;19.20;17.40;;;;;;;;;;5030961;28;20021;-61
2023/01/03 04:57:03;;;;;;;22.88;20.85;;;;;;;;;;5030987;28;20075;-62
2023/01/03 04:59:29;;;;;;;19.17;17.38;;;;;;;;;;5030273;28;20029;-62
2023/01/03 05:01:55;;;;;;;20.88;18.98;;;;;;;;;;5031597;28;20057;-62
2023/01/03 05:04:21;;;;;;;20.00;18.20;;;;;;;;;;5030844;28;20083;-62
2023/01/03 05:06:47;;;;;;;20.25;18.45;;;;;;;;;;5029939;28;20091;-61
2023/01/03 05:09:13;;;;;;;21.77;19.77;;;;;;;;;;5031524;28;20037;-63
2023/01/03 05:11:39;;;;;;;20.25;18.45;;;;;;;;;;5031654;28;20025;-59
2023/01/03 05:14:05;;;;;;;21.00;19.10;;;;;;;;;;5030935;28;20021;-58
2023/01/03 05:16:31;;;;;;;20.40;18.60;;;;;;;;;;5031318;28;20102;-60
2023/01/03 05:18:57;;;;;;;22.23;20.33;;;;;;;;;;5030223;28;20029;-61
2023/01/03 05:26:55;;;;;;;20.02;18.23;;;;;;;;;;5031452;28;20053;-62
2023/01/03 05:29:21;;;;;;;20.70;18.90;;;;;;;;;;5031611;28;20037;-60
2023/01/03 05:31:48;;;;;;;20.30;18.50;;;;;;;;;;5030291;28;20037;-60
2023/01/03 05:34:14;;;;;;;20.15;18.35;;;;;;;;;;5030507;28;20049;-60
2023/01/03 05:36:40;;;;;;;20.40;18.60;;;;;;;;;;5031020;28;20021;-60
2023/01/03 05:39:06;;;;;;;20.85;18.95;;;;;;;;;;5031340;28;20041;-59
2023/01/03 05:44:17;;;;;;;19.90;18.10;;;;;;;;;;5030822;28;20099;-61
2023/01/03 05:46:43;;;;;;;22.17;20.25;;;;;;;;;;5031118;28;20040;-59
2023/01/03 05:49:09;;;;;;;19.42;17.63;;;;;;;;;;5050799;23;20045;-67
2023/01/03 05:51:35;;;;;;;19.08;17.27;;;;;;;;;;5029842;28;20026;-67
2023/01/03 05:54:01;;;;;;;19.15;17.35;;;;;;;;;;5029009;28;20025;-66
2023/01/03 05:56:27;;;;;;;20.55;18.50;;;;;;;;;;5029746;28;20029;-66
2023/01/03 05:58:53;;;;;;;18.88;17.08;;;;;;;;;;5044849;28;20041;-66
2023/01/03 06:01:19;;;;;;;18.80;17.00;;;;;;;;;;5045082;28;20044;-66
2023/01/03 06:03:46;;;;;;;19.58;17.77;;;;;;;;;;5026320;28;20034;-64
2023/01/03 06:06:13;;;;;;;18.73;16.92;;;;;;;;;;5028882;28;20099;-67
2023/01/03 06:08:39;;;;;;;21.15;19.05;;;;;;;;;;5022991;28;20394;-66
2023/01/03 06:11:06;;;;;;;18.73;16.92;;;;;;;;;;5013263;28;20192;-67
2023/01/03 06:13:32;;;;;;;19.98;17.92;;;;;;;;;;5023634;28;20060;-67
2023/01/03 06:18:50;;;;;;;19.02;17.23;;;;;;;;;;5033029;28;20040;-66
2023/01/03 06:21:16;;;;;;;19.20;17.40;;;;;;;;;;5026816;28;20026;-65
2023/01/03 06:23:44;;;;;;;19.55;17.75;;;;;;;;;;5012331;28;20030;-66
2023/01/03 06:26:10;;;;;;;18.75;16.95;;;;;;;;;;5011540;28;20030;-66
2023/01/03 06:28:36;;;;;;;18.63;16.83;;;;;;;;;;5011829;28;20453;-66
2023/01/03 06:31:03;;;;;;;19.60;17.73;;;;;;;;;;5013407;28;20109;-65
2023/01/03 06:33:29;;;;;;;18.20;16.40;;;;;;;;;;5012563;28;20046;-63
2023/01/03 06:35:55;;;;;;;18.30;16.50;;;;;;;;;;5013019;28;20033;-65
2023/01/03 06:38:21;;;;;;;20.58;18.63;;;;;;;;;;5018662;28;20030;-63
2023/01/03 06:40:48;;;;;;;18.10;16.27;;;;;;;;;;5032804;28;20104;-66
2023/01/03 06:43:14;;;;;;;16.40;14.70;;;;;;;;;;5030186;28;20112;-64
2023/01/03 06:53:57;;;;;;;14.98;12.65;;;;;;;;;;5032323;28;20036;-65
2023/01/03 06:56:24;;;;;;;15.23;13.45;;;;;;;;;;5031293;28;20397;-66
2023/01/03 06:58:50;;;;;;;15.18;13.30;;;;;;;;;;5032340;28;20043;-67
2023/01/03 07:01:16;;;;;;;15.35;13.48;;;;;;;;;;5032216;28;20513;-66
2023/01/03 07:03:42;;;;;;;15.20;12.88;;;;;;;;;;5031481;28;20120;-66
2023/01/03 07:06:08;;;;;;;28.75;15.30;;;;;;;;;;5031973;28;20029;-66
2023/01/03 07:08:35;;;;;;;16.13;13.30;;;;;;;;;;5031896;28;20028;-67
2023/01/03 07:11:01;;;;;;;16.05;14.18;;;;;;;;;;5032028;28;20021;-66
2023/01/03 07:16:15;;;;;;;15.02;12.60;;;;;;;;;;5031823;28;20032;-67
2023/01/03 07:18:41;;;;;;;14.50;11.25;;;;;;;;;;5031532;28;20056;-64
2023/01/03 07:21:08;;;;;;;17.70;12.75;;;;;;;;;;5031571;28;20029;-66
2023/01/03 07:23:34;;;;;;;15.55;12.85;;;;;;;;;;5030941;28;20033;-66
2023/01/03 07:26:00;;;;;;;14.90;12.40;;;;;;;;;;5031586;28;20045;-66
2023/01/03 07:28:26;;;;;;;14.35;10.90;;;;;;;;;;5031259;28;20087;-63
2023/01/03 07:30:52;;;;;;;14.32;10.82;;;;;;;;;;5031615;28;20025;-64
2023/01/03 07:33:18;;;;;;;14.65;11.35;;;;;;;;;;5030911;28;20045;-64
2023/01/03 07:35:44;;;;;;;15.10;12.75;;;;;;;;;;5030192;28;20025;-66
2023/01/03 07:38:12;;;;;;;14.68;12.00;;;;;;;;;;5030446;28;20425;-66
2023/01/03 07:40:39;;;;;;;14.75;12.18;;;;;;;;;;5031851;28;20033;-65
2023/01/03 07:45:49;;;;;;;15.00;12.75;;;;;;;;;;5031988;28;20044;-65
2023/01/03 07:48:15;;;;;;;14.80;12.15;;;;;;;;;;5031579;28;20116;-65
2023/01/03 07:50:42;;;;;;;17.00;13.40;;;;;;;;;;5030430;28;20483;-65
2023/01/03 07:53:08;;;;;;;18.15;14.75;;;;;;;;;;5030976;28;20022;-66
2023/01/03 07:55:35;;;;;;;15.93;14.15;;;;;;;;;;5031387;28;20501;-66
2023/01/03 07:58:01;;;;;;;15.40;13.40;;;;;;;;;;5031572;28;20090;-64
2023/01/03 08:00:27;;;;;;;15.88;14.18;;;;;;;;;;5030325;28;20440;-66
2023/01/03 08:02:53;;;;;;;14.90;12.52;;;;;;;;;;5031446;28;20025;-65
2023/01/03 08:05:20;;;;;;;17.65;14.93;;;;;;;;;;5029355;28;20056;-65
2023/01/03 08:07:47;;;;;;;15.02;12.77;;;;;;;;;;5031306;28;20030;-64
2023/01/03 08:13:16;;;;;;;15.25;13.27;;;;;;;;;;5036081;28;20422;-64
2023/01/03 08:15:46;;;;;;;15.20;13.38;;;;;;;;;;5037374;28;20037;-65
2023/01/03 08:18:13;;;;;;;15.30;13.57;;;;;;;;;;5033056;28;20081;-65
2023/01/03 08:20:39;;;;;;;15.20;13.30;;;;;;;;;;5031138;28;20029;-64
2023/01/03 08:23:05;;;;;;;15.80;14.10;;;;;;;;;;5029903;28;20136;-66
2023/01/03 08:25:31;;;;;;;15.20;13.23;;;;;;;;;;5030906;28;20026;-66
2023/01/03 08:27:58;;;;;;;18.50;16.60;;;;;;;;;;5030924;28;20086;-65
2023/01/03 08:30:24;;;;;;;17.38;15.57;;;;;;;;;;5031208;28;20027;-65
2023/01/03 08:32:50;;;;;;;15.60;13.90;;;;;;;;;;5030081;28;20024;-64
2023/01/03 08:35:16;;;;;;;16.65;14.85;;;;;;;;;;5030345;28;20535;-62
2023/01/03 08:37:44;;;;;;;17.33;15.48;;;;;;;;;;5031003;28;20026;-63
2023/01/03 08:40:10;;;;;;;15.23;13.50;;;;;;;;;;5030739;28;20021;-64
2023/01/03 08:42:37;;;;;;;18.00;16.20;;;;;;;;;;5031125;28;20096;-63
2023/01/03 08:45:05;;;;;;;22.67;14.98;;;;;;;;;;5030517;28;20112;-63
2023/01/03 08:47:31;;;;;;;15.32;13.55;;;;;;;;;;5030590;28;20533;-63
2023/01/03 08:49:58;;;;;;;15.88;14.18;;;;;;;;;;5031223;28;20033;-59
2023/01/03 08:52:24;;;;;;;15.20;13.40;;;;;;;;;;5030922;28;20386;-61
2023/01/03 08:54:49;;;;;;;15.30;13.50;;;;;;;;;;5030071;28;20552;-63
2023/01/03 08:57:16;;;;;;;16.02;14.32;;;;;;;;;;5030726;28;20100;-61
2023/01/03 08:59:42;;;;;;;16.10;14.40;;;;;;;;;;5029640;28;20052;-61
2023/01/03 09:02:08;;;;;;;18.67;16.20;;;;;;;;;;5030656;28;20029;-62
2023/01/03 09:04:34;;;;;;;16.10;14.40;;;;;;;;;;5029354;28;20029;-59
2023/01/03 09:07:00;;;;;;;15.80;14.10;;;;;;;;;;5030327;28;20040;-62
2023/01/03 09:09:26;;;;;;;16.33;14.63;;;;;;;;;;5030472;28;20029;-62
2023/01/03 09:11:52;;;;;;;15.25;13.38;;;;;;;;;;5031320;28;20358;-62
2023/01/03 09:14:18;;;;;;;16.10;14.40;;;;;;;;;;5030040;28;20026;-61
2023/01/03 09:16:44;;;;;;;15.40;13.65;;;;;;;;;;5030395;28;20014;-61
2023/01/03 09:19:10;;;;;;;15.48;13.77;;;;;;;;;;5030917;28;20401;-62
2023/01/03 09:21:36;;;;;;;15.20;13.18;;;;;;;;;;5030690;28;20025;-61
2023/01/03 09:24:02;;;;;;;15.38;13.57;;;;;;;;;;5029342;28;20080;-62
2023/01/03 09:26:29;;;;;;;14.82;12.30;;;;;;;;;;5029862;28;20446;-62
2023/01/03 09:28:55;;;;;;;15.68;13.82;;;;;;;;;;5023871;28;20498;-62
2023/01/03 09:31:21;;;;;;;14.90;12.35;;;;;;;;;;5010771;28;20022;-62
2023/01/03 09:33:47;;;;;;;15.07;12.63;;;;;;;;;;5009954;28;20114;-63
2023/01/03 09:36:13;;;;;;;15.00;12.70;;;;;;;;;;5010892;28;20105;-62
2023/01/03 09:38:39;;;;;;;15.05;12.90;;;;;;;;;;5010599;28;20036;-63
2023/01/03 09:41:07;;;;;;;15.30;12.75;;;;;;;;;;5010383;28;20030;-62
2023/01/03 09:43:39;;;;;;;15.00;12.50;;;;;;;;;;5011023;28;20486;-61
2023/01/03 09:46:06;;;;;;;14.88;12.43;;;;;;;;;;5014111;28;20037;-63
2023/01/03 09:48:35;;;;;;;19.35;16.67;;;;;;;;;;5013356;28;20034;-62
2023/01/03 09:51:01;;;;;;;15.40;13.50;;;;;;;;;;5013855;28;20057;-63
2023/01/03 10:05:04;;;;;;;15.00;12.50;;;;;;;;;;5012881;28;20049;-63
2023/01/03 10:07:49;;;;;;;15.20;13.13;;;;;;;;;;5021953;28;20084;-62
2023/01/03 10:10:34;;;;;;;16.00;13.48;;;;;;;;;;5027037;28;20046;-63
2023/01/03 10:13:06;;;;;;;15.07;12.55;;;;;;;;;;5033669;28;20022;-61
2023/01/03 10:15:38;;;;;;;14.63;11.73;;;;;;;;;;5035709;28;20144;-63
2023/01/03 10:18:23;;;;;;;14.85;12.02;;;;;;;;;;5034072;28;20040;-62
2023/01/03 10:20:51;;;;;;;15.70;12.65;;;;;;;;;;5021162;28;20026;-60
2023/01/03 10:23:18;;;;;;;14.53;10.80;;;;;;;;;;5013031;28;20061;-60
2023/01/03 10:25:45;;;;;;;14.00;9.80;;;;;;;;;;5013866;28;20025;-64
2023/01/03 10:28:13;;;;;;;13.95;9.80;;;;;;;;;;5014333;28;20069;-65
2023/01/03 10:30:50;;;;;;;14.05;10.05;;;;;;;;;;5014386;28;20102;-66
2023/01/03 10:33:33;;;;;;;26.42;12.30;;;;;;;;;;5013596;28;20034;-66
2023/01/03 10:36:00;;;;;;;13.95;10.00;;;;;;;;;;5014174;28;20086;-66
2023/01/03 10:38:26;;;;;;;14.40;10.02;;;;;;;;;;5013881;28;20030;-64
2023/01/03 10:40:59;;;;;;;13.50;8.40;;;;;;;;;;5013988;28;20042;-65
2023/01/03 10:43:28;;;;;;;13.60;8.60;;;;;;;;;;5013310;28;20041;-66
2023/01/03 10:45:56;;;;;;;13.70;9.00;;;;;;;;;;5014050;28;20014;-65
2023/01/03 10:48:23;;;;;;;13.52;8.65;;;;;;;;;;5013297;28;20034;-66
2023/01/03 10:50:49;;;;;;;14.25;10.18;;;;;;;;;;5013800;28;20029;-66
2023/01/03 10:53:17;;;;;;;13.98;9.88;;;;;;;;;;5012364;28;20018;-64
2023/01/03 10:55:48;;;;;;;14.40;11.20;;;;;;;;;;5012785;28;20025;-65
2023/01/03 10:58:17;;;;;;;14.50;11.45;;;;;;;;;;5013548;28;20393;-65
2023/01/03 11:00:43;;;;;;;14.60;11.63;;;;;;;;;;5013258;28;20030;-65
2023/01/03 11:03:09;;;;;;;14.70;11.90;;;;;;;;;;5012806;28;20053;-66
2023/01/03 11:05:35;;;;;;;14.60;11.57;;;;;;;;;;5016121;28;20037;-66
2023/01/03 11:08:02;;;;;;;14.75;12.05;;;;;;;;;;5032852;28;20033;-66
2023/01/03 11:10:38;;;;;;;15.15;13.07;;;;;;;;;;5033030;28;20029;-67
2023/01/03 11:13:23;;;;;;;14.88;12.30;;;;;;;;;;5032587;28;20033;-65
2023/01/03 11:15:53;;;;;;;14.60;11.50;;;;;;;;;;5032769;28;20385;-66
2023/01/03 11:18:19;;;;;;;14.50;11.30;;;;;;;;;;5032683;28;20026;-66
2023/01/03 11:20:49;;;;;;;14.48;11.18;;;;;;;;;;5033223;28;20037;-66
2023/01/03 11:23:37;;;;;;;14.50;11.40;;;;;;;;;;5032865;28;20037;-67
2023/01/03 11:26:03;;;;;;;14.50;11.13;;;;;;;;;;5033253;28;20033;-66
2023/01/03 11:28:38;;;;;;;14.45;11.30;;;;;;;;;;5032513;28;20029;-65
2023/01/03 11:31:04;;;;;;;14.65;11.85;;;;;;;;;;5031461;28;20078;-65
2023/01/03 11:33:38;;;;;;;14.00;9.85;;;;;;;;;;5031842;28;20017;-65
2023/01/03 11:36:24;;;;;;;14.00;9.55;;;;;;;;;;5032491;28;20078;-66
2023/01/03 11:38:53;;;;;;;14.20;9.95;;;;;;;;;;5030625;28;20557;-65
2023/01/03 11:41:39;;;;;;;13.77;9.20;;;;;;;;;;5032547;28;20549;-66
2023/01/03 11:44:21;;;;;;;13.77;9.18;;;;;;;;;;5031564;28;20025;-67
2023/01/03 11:46:56;;;;;;;13.88;9.63;;;;;;;;;;5032187;28;20077;-67
2023/01/03 11:49:22;;;;;;;14.15;10.25;;;;;;;;;;5044760;23;20041;-57
2023/01/03 11:51:57;;;;;;;14.10;10.18;;;;;;;;;;5032283;28;20470;-61
2023/01/03 11:54:42;;;;;;;13.95;9.55;;;;;;;;;;5031805;28;20025;-59
2023/01/03 11:57:16;;;;;;;14.15;10.40;;;;;;;;;;5032973;28;20049;-67
2023/01/03 11:59:49;;;;;;;14.60;11.23;;;;;;;;;;5032402;28;20558;-58
2023/01/03 12:02:21;;;;;;;13.98;9.90;;;;;;;;;;5032365;28;20048;-62
2023/01/03 12:04:56;;;;;;;14.10;10.18;;;;;;;;;;5031802;28;20025;-59
2023/01/03 12:07:28;;;;;;;14.10;9.85;;;;;;;;;;5031071;28;20036;-60
2023/01/03 12:10:00;;;;;;;13.95;9.82;;;;;;;;;;5032277;28;20040;-58
2023/01/03 12:12:37;;;;;;;14.20;10.25;;;;;;;;;;5032464;28;20051;-53
2023/01/03 12:15:11;;;;;;;13.57;8.70;;;;;;;;;;5031562;28;20079;-53
2023/01/03 12:17:41;;;;;;;14.25;10.77;;;;;;;;;;5032085;28;20021;-55
2023/01/03 12:20:23;;;;;;;14.23;10.73;;;;;;;;;;5032130;28;20052;-62
2023/01/03 12:23:01;;;;;;;14.40;11.00;;;;;;;;;;5031938;28;20509;-55
2023/01/03 12:25:37;;;;;;;14.55;11.45;;;;;;;;;;5030659;28;20044;-58
2023/01/03 12:28:09;;;;;;;14.50;11.30;;;;;;;;;;5030638;28;20021;-57
2023/01/03 12:30:44;;;;;;;14.30;10.98;;;;;;;;;;5031671;28;20473;-62
2023/01/03 12:33:25;;;;;;;14.40;11.18;;;;;;;;;;5029189;28;20018;-56
2023/01/03 12:35:56;;;;;;;15.05;12.30;;;;;;;;;;5031684;28;20072;-60
2023/01/03 12:38:29;;;;;;;14.40;11.10;;;;;;;;;;5031581;28;20095;-58
2023/01/03 12:40:58;;;;;;;17.15;12.82;;;;;;;;;;5030489;28;20404;-53
2023/01/03 12:43:45;;;;;;;14.38;11.10;;;;;;;;;;5028860;28;20451;-57
2023/01/03 12:46:15;;;;;;;14.18;10.40;;;;;;;;;;5032084;28;20029;-53
2023/01/03 12:48:47;;;;;;;15.88;12.20;;;;;;;;;;5031372;28;20520;-58
2023/01/03 12:51:15;;;;;;;13.93;9.70;;;;;;;;;;5031566;28;20037;-59
2023/01/03 12:53:45;;;;;;;13.95;9.77;;;;;;;;;;5030798;28;20048;-59
2023/01/03 12:56:23;;;;;;;14.20;10.02;;;;;;;;;;5031843;28;20018;-58
2023/01/03 12:59:07;;;;;;;14.60;10.00;;;;;;;;;;5031342;28;20032;-63
2023/01/03 13:01:33;;;;;;;13.70;9.23;;;;;;;;;;5031422;28;20041;-60
2023/01/03 13:04:02;;;;;;;16.50;9.77;;;;;;;;;;5030739;28;20030;-57
2023/01/03 13:06:28;;;;;;;;;;;;;;;;;;5031552;28;20021;-56
2023/01/03 13:08:56;;;;;;;13.55;8.80;;;;;;;;;;5031112;28;20368;-57
2023/01/03 13:11:28;;;;;;;13.48;8.35;;;;;;;;;;5031143;28;20017;-51
2023/01/03 13:14:02;;;;;;;13.48;8.52;;;;;;;;;;5030512;28;20029;-54
2023/01/03 13:16:29;;;;;;;13.55;8.50;;;;;;;;;;5031114;28;20026;-50
2023/01/03 13:18:55;;;;;;;13.85;8.63;;;;;;;;;;5032864;28;20405;-55
2023/01/03 13:21:40;;;;;;;13.52;8.40;;;;;;;;;;5035014;28;20033;-57
2023/01/03 13:24:07;;;;;;;13.73;8.63;;;;;;;;;;5033020;28;20026;-56
2023/01/03 13:26:33;;;;;;;13.60;8.60;;;;;;;;;;5034895;28;20104;-57
2023/01/03 13:29:19;;;;;;;13.40;8.30;;;;;;;;;;5034764;28;20033;-54
2023/01/03 13:32:01;;;;;;;13.40;8.10;;;;;;;;;;5035037;28;20024;-55
2023/01/03 13:34:32;;;;;;;13.48;8.20;;;;;;;;;;5045322;28;20021;-56
2023/01/03 13:37:07;;;;;;;13.32;8.00;;;;;;;;;;5054942;28;20029;-60
2023/01/03 13:39:37;;;;;;;13.45;8.27;;;;;;;;;;5053845;28;20078;-56
2023/01/03 13:42:03;;;;;;;13.15;7.90;;;;;;;;;;5052899;28;20033;-56
2023/01/03 13:44:29;;;;;;;15.00;8.70;;;;;;;;;;5050688;28;20090;-53
2023/01/03 13:46:56;;;;;;;13.32;8.13;;;;;;;;;;5052939;28;20039;-54
2023/01/03 13:49:26;;;;;;;13.05;7.75;;;;;;;;;;5052787;28;20465;-51
2023/01/03 13:51:53;;;;;;;13.13;7.75;;;;;;;;;;5051457;28;20535;-53
2023/01/03 13:54:19;;;;;;;13.27;7.82;;;;;;;;;;5052761;28;20152;-55
2023/01/03 13:56:45;;;;;;;12.95;7.70;;;;;;;;;;5054269;28;20053;-50
2023/01/03 13:59:13;;;;;;;13.38;8.10;;;;;;;;;;5054162;28;20025;-56
2023/01/03 14:01:58;;;;;;;13.80;8.63;;;;;;;;;;5054112;28;20037;-53
2023/01/03 14:04:30;;;;;;;12.65;7.47;;;;;;;;;;5052232;28;20032;-55
2023/01/03 14:06:56;;;;;;;13.40;8.02;;;;;;;;;;5039160;28;20100;-55
2023/01/03 14:09:48;;;;;;;12.50;7.30;;;;;;;;;;5032402;28;20113;-54
2023/01/03 14:12:29;;;;;;;13.30;7.90;;;;;;;;;;5033773;28;20397;-56
2023/01/03 14:14:56;;;;;;;13.20;7.90;;;;;;;;;;5033300;28;20184;-58
2023/01/03 14:17:32;;;;;;;13.15;8.07;;;;;;;;;;5033575;28;20049;-57
2023/01/03 14:20:03;;;;;;;12.85;7.50;;;;;;;;;;5033929;28;20030;-57
2023/01/03 14:22:36;;;;;;;12.98;7.68;;;;;;;;;;5034210;28;20026;-56
2023/01/03 14:25:02;;;;;;;12.90;7.50;;;;;;;;;;5032052;28;20040;-58
2023/01/03 14:27:32;;;;;;;13.30;7.82;;;;;;;;;;5032455;28;20505;-58
2023/01/03 14:29:58;;;;;;;12.80;7.55;;;;;;;;;;5032586;28;20052;-60
2023/01/03 14:32:28;;;;;;;13.07;7.70;;;;;;;;;;5033712;28;20458;-56
2023/01/03 14:34:54;;;;;;;12.90;7.53;;;;;;;;;;5033561;28;20021;-59
2023/01/03 14:37:23;;;;;;;14.73;9.00;;;;;;;;;;5033548;28;20465;-59
2023/01/03 14:39:56;;;;;;;12.45;7.30;;;;;;;;;;5034334;28;20041;-56
2023/01/03 14:42:22;;;;;;;12.32;7.20;;;;;;;;;;5031663;28;20025;-60
2023/01/03 14:44:50;;;;;;;12.57;7.32;;;;;;;;;;4678403;28;10000237;-59
2023/01/03 14:47:17;;;;;;;12.45;7.28;;;;;;;;;;5029861;28;20025;-57
2023/01/03 14:49:51;;;;;;;12.85;7.50;;;;;;;;;;5029884;28;20037;-59
2023/01/03 14:52:28;;;;;;;12.80;7.50;;;;;;;;;;5029914;28;20017;-55
2023/01/03 14:54:55;;;;;;;13.60;8.23;;;;;;;;;;5027718;28;20025;-57
2023/01/03 14:57:24;;;;;;;12.45;7.22;;;;;;;;;;5030120;28;20030;-52
2023/01/03 14:59:50;;;;;;;12.57;7.38;;;;;;;;;;5028624;28;20099;-53
2023/01/03 15:02:17;;;;;;;11.90;6.90;;;;;;;;;;5029722;28;20022;-52
2023/01/03 15:04:44;;;;;;;12.95;7.60;;;;;;;;;;5028977;28;20383;-52
2023/01/03 15:07:28;;;;;;;12.45;7.30;;;;;;;;;;5028028;28;20498;-55
2023/01/03 15:10:23;;;;;;;16.75;9.35;;;;;;;;;;5029477;28;20060;-57
2023/01/03 15:12:51;;;;;;;15.07;9.13;;;;;;;;;;5016753;28;20045;-58
2023/01/03 15:15:47;;;;;;;18.17;9.25;;;;;;;;;;5029402;28;20056;-56
2023/01/03 15:18:13;;;;;;;16.00;9.55;;;;;;;;;;5016276;28;20084;-54
2023/01/03 15:20:43;;;;;;;20.20;9.65;;;;;;;;;;5028140;28;20128;-59
2023/01/03 15:23:25;;;;;;;16.77;9.65;;;;;;;;;;5028957;28;20037;-58
2023/01/03 15:25:51;;;;;;;19.70;9.25;;;;;;;;;;5029524;28;20641;-56
2023/01/03 15:28:24;;;;;;;15.80;8.68;;;;;;;;;;5028249;28;20113;-59
2023/01/03 15:30:50;;;;;;;17.35;9.10;;;;;;;;;;5030632;28;20032;-57
2023/01/03 15:33:36;;;;;;;17.52;9.40;;;;;;;;;;5028619;28;20025;-59